createdAt,value
2019-02-23T00:01:23.538Z,6.58
2019-02-23T00:03:50.381Z,6.08
2019-02-23T00:06:29.041Z,6.78
2019-02-23T00:08:46.164Z,7.00
2019-02-23T00:11:13.414Z,7.40
2019-02-23T00:13:40.116Z,6.75
2019-02-23T00:16:07.305Z,6.70
2019-02-23T00:18:34.619Z,6.65
2019-02-23T00:21:01.720Z,7.28
2019-02-23T00:23:28.461Z,6.90
2019-02-23T00:25:55.395Z,6.87
2019-02-23T00:28:22.133Z,6.97
2019-02-23T00:30:49.030Z,7.45
2019-02-23T00:33:15.973Z,6.65
2019-02-23T00:35:42.747Z,7.17
2019-02-23T00:38:13.319Z,6.97
2019-02-23T00:40:40.659Z,7.08
2019-02-23T00:43:07.388Z,7.50
2019-02-23T00:45:34.236Z,7.35
2019-02-23T00:48:01.009Z,7.50
2019-02-23T00:50:28.270Z,8.15
2019-02-23T00:52:55.359Z,7.62
2019-02-23T00:55:22.191Z,8.23
2019-02-23T00:57:49.051Z,8.65
2019-02-23T01:00:15.849Z,7.87
2019-02-23T01:02:43.200Z,7.78
2019-02-23T01:05:10.176Z,7.50
2019-02-23T01:07:37.330Z,6.87
2019-02-23T01:10:08.392Z,7.87
2019-02-23T01:12:35.291Z,7.67
2019-02-23T01:15:02.205Z,7.75
2019-02-23T01:17:29.091Z,7.92
2019-02-23T01:19:59.378Z,7.65
2019-02-23T01:22:27.309Z,7.97
2019-02-23T01:24:54.468Z,7.50
2019-02-23T01:27:21.698Z,7.50
2019-02-23T01:29:48.605Z,7.42
2019-02-23T01:32:15.436Z,6.78
2019-02-23T01:34:42.191Z,7.22
2019-02-23T01:37:10.850Z,6.95
2019-02-23T01:39:40.248Z,6.97
2019-02-23T01:42:07.019Z,7.40
2019-02-23T01:44:33.921Z,6.92
2019-02-23T01:47:01.011Z,7.45
2019-02-23T01:49:27.781Z,6.92
2019-02-23T01:51:54.939Z,7.33
2019-02-23T01:54:21.679Z,7.00
2019-02-23T01:56:49.246Z,6.97
2019-02-23T01:59:15.986Z,7.30
2019-02-23T02:01:43.303Z,7.45
2019-02-23T02:04:10.488Z,7.22
2019-02-23T02:06:37.260Z,7.33
2019-02-23T02:09:04.660Z,6.40
2019-02-23T02:11:31.895Z,8.18
2019-02-23T02:13:58.816Z,7.30
2019-02-23T02:16:26.043Z,6.97
2019-02-23T02:18:52.826Z,7.40
2019-02-23T02:21:19.995Z,7.40
2019-02-23T02:23:47.248Z,6.83
2019-02-23T02:26:14.281Z,7.30
2019-02-23T02:28:41.150Z,7.35
2019-02-23T02:31:09.041Z,7.40
2019-02-23T02:34:02.059Z,7.33
2019-02-23T02:36:28.883Z,6.92
2019-02-23T02:38:55.731Z,7.58
2019-02-23T02:41:22.570Z,6.47
2019-02-23T02:43:49.466Z,6.95
2019-02-23T02:46:16.218Z,7.15
2019-02-23T02:48:43.188Z,7.55
2019-02-23T02:51:09.954Z,7.75
2019-02-23T02:53:37.036Z,8.40
2019-02-23T02:56:03.910Z,7.70
2019-02-23T02:58:31.131Z,8.75
2019-02-23T03:00:58.249Z,8.10
2019-02-23T03:03:25.029Z,8.10
2019-02-23T03:05:51.930Z,7.70
2019-02-23T03:08:19.388Z,7.62
2019-02-23T03:10:46.214Z,7.75
2019-02-23T03:13:13.005Z,8.18
2019-02-23T03:15:40.537Z,7.50
2019-02-23T03:18:07.366Z,7.87
2019-02-23T03:20:36.832Z,6.83
2019-02-23T03:23:03.468Z,7.35
2019-02-23T03:25:30.274Z,7.62
2019-02-23T03:27:57.530Z,7.40
2019-02-23T03:30:27.325Z,7.85
2019-02-23T03:32:54.193Z,7.85
2019-02-23T03:35:21.738Z,8.18
2019-02-23T03:37:48.988Z,7.65
2019-02-23T03:40:15.809Z,7.35
2019-02-23T03:42:42.614Z,7.30
2019-02-23T03:45:09.386Z,7.15
2019-02-23T03:47:38.583Z,8.50
2019-02-23T03:50:06.901Z,7.75
2019-02-23T03:52:33.791Z,7.28
2019-02-23T03:55:00.552Z,6.87
2019-02-23T03:57:27.392Z,7.45
2019-02-23T03:59:54.305Z,7.40
2019-02-23T04:02:21.408Z,8.10
2019-02-23T04:04:50.097Z,8.03
2019-02-23T04:07:17.011Z,7.95
2019-02-23T04:09:44.257Z,7.95
2019-02-23T04:12:11.537Z,8.38
2019-02-23T04:14:38.686Z,7.85
2019-02-23T04:17:07.781Z,7.67
2019-02-23T04:19:35.346Z,8.05
2019-02-23T04:22:02.166Z,7.90
2019-02-23T04:24:29.069Z,8.00
2019-02-23T04:26:55.913Z,8.00
2019-02-23T04:29:23.111Z,8.60
2019-02-23T04:31:50.378Z,8.48
2019-02-23T04:34:17.315Z,8.25
2019-02-23T04:36:44.441Z,7.80
2019-02-23T04:39:11.240Z,7.90
2019-02-23T04:41:38.089Z,8.08
2019-02-23T04:44:04.893Z,8.35
2019-02-23T04:46:31.631Z,8.33
2019-02-23T04:48:58.457Z,7.78
2019-02-23T04:51:25.250Z,8.30
2019-02-23T04:53:52.047Z,8.98
2019-02-23T04:56:18.810Z,8.95
2019-02-23T04:58:47.622Z,8.28
2019-02-23T05:01:14.430Z,8.68
2019-02-23T05:03:41.598Z,9.10
2019-02-23T05:06:08.404Z,10.25
2019-02-23T05:08:35.565Z,9.50
2019-02-23T05:11:02.383Z,8.93
2019-02-23T05:13:29.150Z,8.80
2019-02-23T05:15:55.946Z,8.95
2019-02-23T05:18:22.804Z,8.83
2019-02-23T05:20:49.569Z,8.88
2019-02-23T05:23:17.235Z,8.05
2019-02-23T05:25:45.159Z,8.30
2019-02-23T05:28:12.500Z,8.95
2019-02-23T05:30:39.382Z,8.45
2019-02-23T05:33:06.165Z,8.78
2019-02-23T05:35:32.948Z,9.03
2019-02-23T05:37:59.717Z,9.20
2019-02-23T05:40:27.047Z,9.50
2019-02-23T05:43:00.906Z,8.90
2019-02-23T05:45:22.549Z,9.00
2019-02-23T05:47:49.688Z,9.60
2019-02-23T05:50:17.348Z,8.80
2019-02-23T05:52:44.323Z,9.10
2019-02-23T05:55:11.242Z,8.70
2019-02-23T05:57:38.223Z,9.18
2019-02-23T06:00:10.663Z,10.08
2019-02-23T06:02:37.802Z,9.93
2019-02-23T06:05:08.130Z,10.32
2019-02-23T06:07:34.902Z,10.53
2019-02-23T06:10:02.622Z,9.95
2019-02-23T06:12:29.394Z,9.55
2019-02-23T06:14:56.118Z,9.75
2019-02-23T06:17:22.878Z,9.75
2019-02-23T06:19:49.655Z,9.60
2019-02-23T06:22:16.730Z,11.05
2019-02-23T06:24:43.549Z,11.00
2019-02-23T06:27:10.434Z,11.65
2019-02-23T06:29:37.318Z,11.70
2019-02-23T06:32:04.454Z,10.03
2019-02-23T06:34:31.528Z,10.03
2019-02-23T06:36:58.444Z,9.93
2019-02-23T06:39:30.834Z,10.10
2019-02-23T06:41:58.847Z,10.63
2019-02-23T06:44:25.961Z,10.30
2019-02-23T06:46:52.949Z,10.85
2019-02-23T06:49:19.831Z,10.48
2019-02-23T06:51:46.681Z,11.30
2019-02-23T06:54:13.463Z,12.20
2019-02-23T06:56:40.577Z,11.28
2019-02-23T06:59:07.353Z,11.83
2019-02-23T07:01:36.729Z,12.53
2019-02-23T07:04:03.900Z,10.70
2019-02-23T07:06:30.761Z,11.28
2019-02-23T07:08:57.515Z,11.33
2019-02-23T07:11:24.382Z,10.55
2019-02-23T07:13:51.293Z,11.95
2019-02-23T07:16:18.450Z,11.75
2019-02-23T07:18:45.382Z,11.33
2019-02-23T07:21:12.301Z,11.50
2019-02-23T07:23:39.403Z,11.78
2019-02-23T07:26:06.323Z,12.35
2019-02-23T07:28:33.122Z,13.08
2019-02-23T07:30:59.982Z,13.05
2019-02-23T07:33:32.949Z,14.80
2019-02-23T07:35:55.675Z,14.20
2019-02-23T07:38:22.480Z,14.23
2019-02-23T07:40:49.295Z,15.30
2019-02-23T07:43:16.371Z,14.95
2019-02-23T07:45:43.482Z,14.60
2019-02-23T07:48:10.251Z,14.05
2019-02-23T07:50:37.112Z,14.25
2019-02-23T07:53:04.694Z,14.47
2019-02-23T07:55:31.831Z,15.25
2019-02-23T07:57:58.680Z,15.60
2019-02-23T08:00:25.951Z,15.65
2019-02-23T08:02:52.884Z,15.35
2019-02-23T08:05:19.776Z,14.75
2019-02-23T08:07:46.936Z,15.60
2019-02-23T08:10:14.418Z,14.93
2019-02-23T08:12:41.570Z,14.70
2019-02-23T08:15:10.621Z,16.20
2019-02-23T08:17:37.420Z,15.25
2019-02-23T08:20:08.736Z,14.95
2019-02-23T08:22:37.659Z,15.80
2019-02-23T08:25:08.749Z,14.40
2019-02-23T08:27:35.983Z,15.55
2019-02-23T08:30:10.618Z,16.20
2019-02-23T08:32:37.618Z,16.15
2019-02-23T08:35:06.422Z,14.98
2019-02-23T08:37:34.084Z,15.63
2019-02-23T08:40:01.327Z,15.72
2019-02-23T08:42:28.307Z,16.55
2019-02-23T08:44:55.315Z,16.15
2019-02-23T08:47:22.241Z,16.80
2019-02-23T08:49:49.052Z,15.90
2019-02-23T08:52:15.878Z,14.35
2019-02-23T08:54:43.199Z,15.83
2019-02-23T08:57:10.247Z,15.38
2019-02-23T08:59:37.135Z,16.17
2019-02-23T09:02:04.216Z,15.85
2019-02-23T09:04:30.980Z,16.48
2019-02-23T09:06:57.794Z,15.40
2019-02-23T09:09:24.545Z,15.83
2019-02-23T09:11:52.127Z,15.40
2019-02-23T09:14:19.044Z,15.30
2019-02-23T09:16:47.367Z,11.95
2019-02-23T09:19:14.181Z,15.78
2019-02-23T09:21:41.237Z,16.15
2019-02-23T09:24:08.095Z,16.27
2019-02-23T09:26:35.641Z,15.58
2019-02-23T09:29:02.552Z,15.00
2019-02-23T09:31:30.959Z,14.70
2019-02-23T09:33:58.346Z,14.75
2019-02-23T09:36:25.362Z,16.17
2019-02-23T09:38:52.705Z,15.03
2019-02-23T09:41:20.619Z,13.65
2019-02-23T09:43:47.508Z,13.95
2019-02-23T09:46:14.364Z,13.83
2019-02-23T09:48:41.176Z,14.55
2019-02-23T09:51:08.031Z,14.00
2019-02-23T09:53:35.242Z,13.05
2019-02-23T09:56:05.488Z,14.68
2019-02-23T09:58:33.476Z,13.38
2019-02-23T10:01:00.624Z,14.03
2019-02-23T10:03:29.013Z,15.28
2019-02-23T10:05:59.513Z,14.30
2019-02-23T10:08:26.283Z,15.48
2019-02-23T10:10:57.608Z,14.18
2019-02-23T10:13:24.853Z,12.78
2019-02-23T10:15:51.620Z,18.37
2019-02-23T10:18:18.390Z,14.55
2019-02-23T10:20:47.690Z,14.10
2019-02-23T10:23:21.462Z,13.80
2019-02-23T10:25:43.260Z,13.83
2019-02-23T10:28:10.174Z,13.28
2019-02-23T10:30:37.413Z,13.10
2019-02-23T10:33:04.249Z,13.20
2019-02-23T10:35:32.644Z,13.65
2019-02-23T10:37:59.480Z,12.90
2019-02-23T10:40:26.413Z,13.40
2019-02-23T10:42:53.170Z,13.05
2019-02-23T10:45:20.018Z,11.97
2019-02-23T10:47:50.355Z,12.53
2019-02-23T10:50:17.283Z,11.50
2019-02-23T10:52:44.202Z,12.60
2019-02-23T10:55:14.347Z,11.38
2019-02-23T10:57:41.153Z,10.70
2019-02-23T11:00:15.427Z,11.00
2019-02-23T11:02:42.484Z,11.20
2019-02-23T11:05:10.420Z,10.70
2019-02-23T11:07:37.335Z,10.70
2019-02-23T11:10:08.336Z,10.45
2019-02-23T11:12:35.321Z,9.53
2019-02-23T11:15:02.376Z,10.00
2019-02-23T11:17:29.360Z,9.58
2019-02-23T11:19:56.491Z,9.28
2019-02-23T11:22:23.708Z,9.13
2019-02-23T11:24:50.785Z,8.55
2019-02-23T11:27:17.855Z,8.75
2019-02-23T11:29:44.700Z,8.73
2019-02-23T11:32:12.311Z,8.98
2019-02-23T11:34:39.086Z,8.60
2019-02-23T11:37:11.872Z,8.25
2019-02-23T11:39:38.980Z,8.58
2019-02-23T11:42:06.279Z,7.97
2019-02-23T11:44:33.249Z,7.92
2019-02-23T11:47:00.481Z,8.15
2019-02-23T11:49:27.731Z,8.43
2019-02-23T11:51:54.587Z,8.35
2019-02-23T11:54:21.524Z,8.10
2019-02-23T11:56:48.398Z,7.25
2019-02-23T11:59:15.148Z,7.62
2019-02-23T12:01:41.929Z,14.50
2019-02-23T12:04:08.717Z,12.28
2019-02-23T12:06:35.914Z,8.15
2019-02-23T12:09:08.844Z,7.80
2019-02-23T12:11:35.682Z,7.83
2019-02-23T12:14:05.771Z,9.03
2019-02-23T12:16:32.588Z,8.75
2019-02-23T12:18:59.332Z,7.20
2019-02-23T12:21:26.651Z,8.78
2019-02-23T12:23:53.638Z,7.20
2019-02-23T12:26:21.948Z,7.30
2019-02-23T12:28:49.235Z,6.42
2019-02-23T12:31:16.037Z,6.72
2019-02-23T12:33:42.914Z,6.70
2019-02-23T12:36:10.021Z,6.33
2019-02-23T12:38:36.895Z,6.97
2019-02-23T12:41:03.715Z,6.12
2019-02-23T12:43:30.700Z,5.90
2019-02-23T12:45:57.624Z,7.00
2019-02-23T12:48:24.608Z,6.40
2019-02-23T12:50:51.759Z,6.60
2019-02-23T12:53:24.547Z,6.22
2019-02-23T12:55:52.105Z,6.08
2019-02-23T12:58:19.093Z,5.97
2019-02-23T13:00:46.019Z,6.37
2019-02-23T13:03:13.345Z,5.72
2019-02-23T13:05:43.039Z,6.40
2019-02-23T13:08:09.966Z,6.20
2019-02-23T13:10:41.377Z,5.90
2019-02-23T13:13:44.585Z,6.67
2019-02-23T13:16:23.731Z,6.50
2019-02-23T13:19:24.231Z,5.40
2019-02-23T13:22:12.201Z,6.20
2019-02-23T13:24:47.766Z,5.87
2019-02-23T13:27:23.354Z,6.30
2019-02-23T13:30:18.057Z,5.83
2019-02-23T13:33:17.809Z,5.70
2019-02-23T13:36:05.932Z,5.72
2019-02-23T13:38:55.766Z,5.28
2019-02-23T13:41:50.338Z,5.45
2019-02-23T13:44:38.644Z,5.60
2019-02-23T13:47:17.114Z,5.22
2019-02-23T13:50:04.557Z,4.75
2019-02-23T13:53:14.903Z,4.78
2019-02-23T13:56:19.942Z,5.37
2019-02-23T13:59:34.468Z,4.80
2019-02-23T14:02:22.306Z,4.83
2019-02-23T14:05:19.078Z,5.45
2019-02-23T14:08:29.994Z,5.30
2019-02-23T14:11:30.727Z,5.45
2019-02-23T14:14:27.298Z,5.28
2019-02-23T14:17:21.122Z,4.65
2019-02-23T14:20:02.619Z,4.90
2019-02-23T14:23:12.730Z,4.55
2019-02-23T14:26:08.984Z,4.78
2019-02-23T14:29:05.345Z,4.90
2019-02-23T14:32:03.874Z,4.50
2019-02-23T14:34:48.494Z,4.83
2019-02-23T14:37:29.009Z,4.80
2019-02-23T14:40:34.759Z,4.22
2019-02-23T14:43:25.135Z,4.22
2019-02-23T14:46:22.474Z,4.30
2019-02-23T14:49:16.544Z,4.20
2019-02-23T14:51:55.351Z,4.25
2019-02-23T14:54:36.786Z,3.95
2019-02-23T14:57:37.262Z,4.62
2019-02-23T15:00:29.353Z,5.40
2019-02-23T15:03:31.039Z,4.40
2019-02-23T15:06:12.672Z,5.00
2019-02-23T15:08:50.959Z,4.78
2019-02-23T15:11:51.038Z,5.20
2019-02-23T15:14:33.588Z,4.67
2019-02-23T15:17:29.590Z,4.62
2019-02-23T15:20:28.580Z,4.80
2019-02-23T15:23:24.638Z,5.03
2019-02-23T15:26:46.418Z,4.50
2019-02-23T15:29:45.867Z,4.17
2019-02-23T15:32:41.838Z,4.15
2019-02-23T15:35:53.686Z,5.10
2019-02-23T15:39:08.500Z,4.40
2019-02-23T15:42:01.367Z,4.37
2019-02-23T15:44:54.889Z,4.10
2019-02-23T15:47:43.118Z,4.30
2019-02-23T15:50:13.624Z,5.37
2019-02-23T15:52:42.122Z,4.60
2019-02-23T15:55:10.181Z,4.28
2019-02-23T15:57:38.379Z,4.28
2019-02-23T16:00:07.608Z,4.40
2019-02-23T16:02:35.877Z,4.47
2019-02-23T16:05:02.828Z,4.20
2019-02-23T16:07:30.145Z,5.12
2019-02-23T16:09:57.016Z,4.72
2019-02-23T16:12:24.621Z,4.75
2019-02-23T16:14:51.700Z,4.92
2019-02-23T16:17:18.589Z,5.17
2019-02-23T16:19:45.588Z,4.67
2019-02-23T16:22:13.199Z,5.08
2019-02-23T16:24:40.665Z,4.83
2019-02-23T16:27:08.125Z,4.60
2019-02-23T16:29:39.758Z,4.10
2019-02-23T16:32:04.576Z,4.12
2019-02-23T16:34:31.312Z,3.40
2019-02-23T16:36:58.103Z,3.80
2019-02-23T16:39:24.963Z,3.87
2019-02-23T16:41:51.863Z,4.25
2019-02-23T16:44:19.043Z,4.45
2019-02-23T16:46:46.636Z,5.03
2019-02-23T16:49:14.194Z,4.60
2019-02-23T16:51:41.299Z,4.42
2019-02-23T16:54:08.266Z,4.72
2019-02-23T16:56:36.811Z,4.45
2019-02-23T16:59:04.369Z,4.75
2019-02-23T17:01:32.299Z,5.08
2019-02-23T17:03:59.722Z,4.47
2019-02-23T17:06:26.470Z,4.92
2019-02-23T17:08:54.178Z,4.50
2019-02-23T17:11:22.766Z,4.47
2019-02-23T17:13:53.064Z,4.47
2019-02-23T17:16:20.251Z,4.70
2019-02-23T17:18:49.262Z,3.95
2019-02-23T17:21:17.564Z,4.42
2019-02-23T17:23:45.397Z,4.70
2019-02-23T17:26:12.694Z,4.03
2019-02-23T17:28:40.145Z,4.67
2019-02-23T17:31:07.176Z,4.45
2019-02-23T17:33:34.190Z,4.45
2019-02-23T17:36:01.717Z,4.37
2019-02-23T17:38:30.430Z,4.08
2019-02-23T17:40:57.630Z,3.83
2019-02-23T17:43:25.591Z,4.65
2019-02-23T17:45:53.034Z,4.20
2019-02-23T17:48:19.789Z,4.08
2019-02-23T17:50:50.711Z,4.58
2019-02-23T17:53:17.734Z,4.10
2019-02-23T17:55:46.724Z,3.90
2019-02-23T17:58:14.993Z,3.80
2019-02-23T18:00:43.290Z,4.42
2019-02-23T18:03:12.406Z,5.17
2019-02-23T18:05:39.754Z,4.80
2019-02-23T18:08:09.244Z,4.37
2019-02-23T18:10:37.457Z,3.87
2019-02-23T18:13:04.350Z,3.80
2019-02-23T18:15:32.058Z,3.47
2019-02-23T18:17:59.455Z,3.62
2019-02-23T18:20:26.589Z,3.67
2019-02-23T18:22:54.337Z,3.60
2019-02-23T18:25:23.244Z,3.25
2019-02-23T18:27:50.026Z,3.50
2019-02-23T18:30:16.792Z,3.17
2019-02-23T18:32:43.560Z,3.72
2019-02-23T18:35:11.881Z,4.15
2019-02-23T18:37:38.950Z,3.80
2019-02-23T18:40:07.133Z,3.87
2019-02-23T18:42:34.465Z,4.85
2019-02-23T18:45:02.061Z,5.05
2019-02-23T18:47:29.956Z,4.60
2019-02-23T18:49:57.443Z,4.08
2019-02-23T18:52:24.743Z,4.87
2019-02-23T18:54:52.314Z,4.33
2019-02-23T18:57:20.708Z,4.20
2019-02-23T18:59:48.164Z,4.20
2019-02-23T19:02:15.750Z,4.00
2019-02-23T19:04:42.545Z,4.17
2019-02-23T19:07:09.870Z,4.47
2019-02-23T19:09:36.594Z,4.03
2019-02-23T19:12:04.057Z,4.22
2019-02-23T19:14:31.159Z,3.67
2019-02-23T19:16:58.720Z,4.40
2019-02-23T19:19:27.635Z,4.30
2019-02-23T19:21:55.378Z,4.45
2019-02-23T19:24:24.341Z,5.20
2019-02-23T19:26:53.590Z,5.05
2019-02-23T19:29:22.689Z,4.20
2019-02-23T19:31:50.353Z,4.65
2019-02-23T19:34:17.292Z,4.05
2019-02-23T19:36:44.459Z,4.00
2019-02-23T19:39:13.095Z,3.95
2019-02-23T19:41:45.891Z,4.03
2019-02-23T19:44:13.419Z,4.40
2019-02-23T19:46:46.259Z,4.37
2019-02-23T19:49:13.525Z,4.55
2019-02-23T19:51:40.723Z,4.42
2019-02-23T19:54:07.701Z,3.90
2019-02-23T19:56:34.578Z,4.42
2019-02-23T19:59:02.003Z,4.05
2019-02-23T20:01:29.222Z,3.67
2019-02-23T20:03:56.043Z,3.72
2019-02-23T20:06:23.229Z,3.25
2019-02-23T20:08:51.093Z,3.85
2019-02-23T20:11:18.264Z,4.03
2019-02-23T20:13:45.320Z,3.45
2019-02-23T20:16:12.181Z,4.72
2019-02-23T20:18:39.179Z,4.62
2019-02-23T20:21:06.095Z,3.90
2019-02-23T20:23:33.347Z,4.00
2019-02-23T20:26:02.547Z,4.10
2019-02-23T20:28:29.543Z,4.17
2019-02-23T20:30:57.120Z,3.65
2019-02-23T20:33:25.312Z,3.55
2019-02-23T20:35:56.500Z,3.77
2019-02-23T20:38:23.650Z,3.90
2019-02-23T20:40:51.265Z,4.33
2019-02-23T20:43:19.239Z,4.33
2019-02-23T20:45:46.515Z,4.25
2019-02-23T20:48:13.794Z,4.50
2019-02-23T20:50:41.526Z,4.00
2019-02-23T20:53:10.068Z,4.70
2019-02-23T20:55:39.161Z,3.92
2019-02-23T20:58:08.617Z,4.20
2019-02-23T21:00:35.553Z,4.00
2019-02-23T21:03:06.112Z,4.30
2019-02-23T21:05:33.539Z,4.15
2019-02-23T21:08:03.823Z,3.98
2019-02-23T21:10:31.219Z,4.25
2019-02-23T21:12:58.274Z,4.30
2019-02-23T21:15:25.198Z,4.37
2019-02-23T21:17:52.488Z,4.50
2019-02-23T21:20:20.092Z,5.08
2019-02-23T21:22:47.156Z,5.40
2019-02-23T21:25:14.109Z,5.70
2019-02-23T21:27:41.157Z,5.60
2019-02-23T21:30:09.668Z,5.55
2019-02-23T21:32:36.793Z,4.67
2019-02-23T21:35:09.984Z,4.72
2019-02-23T21:37:37.072Z,4.50
2019-02-23T21:40:08.350Z,4.20
2019-02-23T21:42:35.115Z,4.30
2019-02-23T21:45:03.945Z,4.67
2019-02-23T21:47:30.842Z,4.50
2019-02-23T21:49:58.217Z,5.08
2019-02-23T21:52:25.060Z,5.25
2019-02-23T21:54:52.176Z,5.17
2019-02-23T21:57:24.823Z,4.42
2019-02-23T21:59:52.226Z,4.67
2019-02-23T22:02:19.180Z,4.75
2019-02-23T22:04:46.416Z,4.80
2019-02-23T22:07:13.331Z,4.50
2019-02-23T22:09:41.659Z,4.55
2019-02-23T22:12:08.471Z,4.28
2019-02-23T22:14:35.245Z,4.87
2019-02-23T22:17:04.566Z,4.83
2019-02-23T22:19:31.676Z,4.83
2019-02-23T22:21:58.945Z,5.15
2019-02-23T22:24:25.857Z,4.95
2019-02-23T22:26:53.066Z,5.10
2019-02-23T22:29:19.938Z,5.10
2019-02-23T22:31:47.207Z,4.65
2019-02-23T22:34:14.192Z,5.20
2019-02-23T22:36:40.994Z,5.12
2019-02-23T22:39:08.429Z,4.83
2019-02-23T22:41:35.318Z,4.80
2019-02-23T22:44:02.507Z,4.55
2019-02-23T22:46:30.002Z,4.97
2019-02-23T22:48:57.261Z,4.60
2019-02-23T22:51:24.430Z,4.72
2019-02-23T22:53:51.292Z,4.87
2019-02-23T22:56:19.438Z,4.55
2019-02-23T22:58:46.413Z,4.83
2019-02-23T23:01:13.488Z,4.83
2019-02-23T23:03:40.793Z,4.65
2019-02-23T23:06:08.361Z,5.12
2019-02-23T23:08:35.231Z,5.08
2019-02-23T23:11:02.042Z,5.25
2019-02-23T23:13:28.813Z,4.85
2019-02-23T23:15:56.176Z,4.62
2019-02-23T23:18:23.110Z,4.50
2019-02-23T23:20:49.845Z,4.55
2019-02-23T23:23:16.611Z,4.97
2019-02-23T23:25:43.464Z,5.10
2019-02-23T23:28:11.396Z,5.20
2019-02-23T23:30:39.103Z,5.33
2019-02-23T23:33:05.947Z,5.33
2019-02-23T23:35:32.847Z,4.65
2019-02-23T23:37:59.675Z,4.53
2019-02-23T23:40:26.466Z,4.40
2019-02-23T23:42:58.142Z,4.20
2019-02-23T23:45:22.220Z,4.08
2019-02-23T23:47:49.941Z,4.50
2019-02-23T23:50:16.777Z,4.85
2019-02-23T23:52:43.626Z,4.50
2019-02-23T23:55:11.626Z,4.20
2019-02-23T23:57:38.959Z,4.50
